Time;durP1;ratioP1;P1;durP2;ratioP2;P2;SDS_P1;SDS_P2;PMS_P1;PMS_P2;Temp;Humidity;BMP_temperature;BMP_pressure;BME280_temperature;BME280_humidity;BME280_pressure;Samples;Min_cycle;Max_cycle;Signal;HPM_P1;HPM_P2
2023/02/08 00:01:59;;;;;;;11.90;6.60;;;-1.10;99.90;;;;;;4995620;28;20603;-71
2023/02/08 00:04:24;;;;;;;13.37;5.77;;;-1.10;99.90;;;;;;4995075;28;20431;-70
2023/02/08 00:06:50;;;;;;;9.20;5.67;;;-1.10;99.90;;;;;;4995416;28;20169;-71
2023/02/08 00:09:15;;;;;;;9.20;5.40;;;-1.20;99.90;;;;;;4995000;28;20685;-71
2023/02/08 00:11:41;;;;;;;9.73;6.30;;;-1.20;99.90;;;;;;4995317;28;20247;-69
2023/02/08 00:14:07;;;;;;;11.37;7.13;;;-1.20;99.90;;;;;;4995136;28;20203;-70
2023/02/08 00:16:33;;;;;;;10.87;6.03;;;-1.20;99.90;;;;;;4995197;28;20304;-69
2023/02/08 00:18:58;;;;;;;9.43;5.43;;;-1.20;99.90;;;;;;4995232;28;21003;-70
2023/02/08 00:21:24;;;;;;;11.43;6.10;;;-1.30;99.90;;;;;;4994975;28;20192;-70
2023/02/08 00:23:49;;;;;;;11.30;6.20;;;-1.30;99.90;;;;;;4995307;28;20169;-70
2023/02/08 00:26:15;;;;;;;16.50;7.13;;;-1.30;99.90;;;;;;4994831;28;20173;-70
2023/02/08 00:28:41;;;;;;;9.80;5.87;;;-1.20;99.90;;;;;;4993866;28;20181;-69
2023/02/08 00:31:06;;;;;;;12.90;6.30;;;-1.20;99.90;;;;;;4994970;28;20189;-70
2023/02/08 00:33:32;;;;;;;7.10;5.70;;;-1.20;99.90;;;;;;4994876;28;20165;-69
2023/02/08 00:36:02;;;;;;;9.70;4.80;;;-1.30;99.90;;;;;;4993312;28;20180;-69
2023/02/08 00:38:28;;;;;;;9.97;5.87;;;-1.30;99.90;;;;;;4994840;28;20192;-70
2023/02/08 00:40:54;;;;;;;10.37;6.20;;;-1.30;99.90;;;;;;4994995;28;20490;-70
2023/02/08 00:43:21;;;;;;;8.30;5.10;;;-1.30;99.90;;;;;;4994663;28;20411;-70
2023/02/08 00:45:46;;;;;;;12.97;6.53;;;-1.30;99.90;;;;;;5004678;28;20179;-70
2023/02/08 00:48:12;;;;;;;11.70;5.63;;;-1.30;99.90;;;;;;5013253;28;21073;-70
2023/02/08 00:50:37;;;;;;;18.07;7.40;;;-1.30;99.90;;;;;;5016989;28;20200;-70
2023/02/08 00:53:03;;;;;;;10.47;5.63;;;-1.40;99.90;;;;;;5023259;28;20230;-70
2023/02/08 00:55:28;;;;;;;10.97;6.10;;;-1.40;99.90;;;;;;5013933;28;20164;-70
2023/02/08 00:57:54;;;;;;;10.03;6.53;;;-1.30;99.90;;;;;;5013957;28;20168;-69
2023/02/08 01:00:20;;;;;;;7.27;5.27;;;-1.40;99.90;;;;;;5013981;28;20185;-70
2023/02/08 01:02:45;;;;;;;10.03;5.73;;;-1.30;99.90;;;;;;5014201;28;20173;-70
2023/02/08 01:05:11;;;;;;;9.00;5.37;;;-1.40;99.90;;;;;;5013801;28;20511;-70
2023/02/08 01:07:37;;;;;;;8.43;5.97;;;-1.30;99.90;;;;;;5014064;28;20171;-70
2023/02/08 01:10:04;;;;;;;10.80;5.47;;;-1.30;99.90;;;;;;5013747;28;20211;-71
2023/02/08 01:12:30;;;;;;;12.40;6.83;;;-1.30;99.90;;;;;;5014039;28;20812;-70
2023/02/08 01:14:55;;;;;;;6.80;5.57;;;-1.40;99.90;;;;;;5013545;28;20499;-70
2023/02/08 01:17:21;;;;;;;7.80;4.67;;;-1.30;99.90;;;;;;5014021;28;20174;-69
2023/02/08 01:19:47;;;;;;;6.73;4.70;;;-1.30;99.90;;;;;;4994511;28;20584;-70
2023/02/08 01:22:12;;;;;;;9.50;5.73;;;-1.30;99.90;;;;;;4994085;28;20176;-71
2023/02/08 01:24:38;;;;;;;9.70;5.33;;;-1.40;99.90;;;;;;4993960;28;20223;-71
2023/02/08 01:27:03;;;;;;;7.63;4.90;;;-1.40;99.90;;;;;;4994227;28;20173;-70
2023/02/08 01:29:29;;;;;;;7.87;4.73;;;-1.40;99.90;;;;;;4993935;28;20532;-70
2023/02/08 01:31:54;;;;;;;10.27;4.90;;;-1.30;99.90;;;;;;4994059;28;20822;-70
2023/02/08 01:34:20;;;;;;;11.40;7.00;;;-1.40;99.90;;;;;;4993479;28;20180;-70
2023/02/08 01:36:45;;;;;;;10.60;5.17;;;-1.40;99.90;;;;;;4993484;28;20177;-70
2023/02/08 01:39:11;;;;;;;11.33;6.30;;;-1.40;99.90;;;;;;4993774;28;20665;-70
2023/02/08 01:41:42;;;;;;;7.37;5.20;;;-1.40;99.90;;;;;;4992349;28;20199;-71
2023/02/08 01:44:08;;;;;;;8.00;4.90;;;-1.40;99.90;;;;;;4992852;28;20174;-70
2023/02/08 01:46:36;;;;;;;7.10;4.97;;;-1.40;99.90;;;;;;5009698;28;20850;-70
2023/02/08 01:49:08;;;;;;;8.87;5.40;;;-1.50;99.90;;;;;;5013098;28;20172;-70
2023/02/08 01:51:39;;;;;;;6.00;4.50;;;-1.50;99.90;;;;;;5012929;28;20431;-71
2023/02/08 01:54:07;;;;;;;6.50;4.57;;;-1.50;99.90;;;;;;5013057;28;20477;-71
2023/02/08 01:56:36;;;;;;;8.13;5.60;;;-1.60;99.90;;;;;;5012733;28;20775;-70
2023/02/08 01:59:07;;;;;;;8.90;5.30;;;-1.50;99.90;;;;;;5012764;28;20971;-70
2023/02/08 02:01:33;;;;;;;7.10;4.90;;;-1.50;99.90;;;;;;5013444;28;20430;-71
2023/02/08 02:04:04;;;;;;;11.80;5.37;;;-1.50;99.90;;;;;;5023746;28;20921;-70
2023/02/08 02:06:34;;;;;;;8.93;5.87;;;-1.50;99.90;;;;;;5012596;28;20618;-70
2023/02/08 02:09:38;;;;;;;8.70;5.00;;;-1.50;99.90;;;;;;5012773;28;20435;-70
2023/02/08 02:12:06;;;;;;;7.23;4.60;;;-1.50;99.90;;;;;;4973067;28;20424;-70
2023/02/08 02:14:33;;;;;;;11.40;6.03;;;-1.50;99.90;;;;;;5007593;28;20424;-70
2023/02/08 02:16:59;;;;;;;9.60;5.00;;;-1.50;99.90;;;;;;5012731;28;20820;-70
2023/02/08 02:19:49;;;;;;;7.80;4.50;;;-1.60;99.90;;;;;;5012522;28;20867;-70
2023/02/08 02:22:59;;;;;;;9.53;6.60;;;-1.60;99.90;;;;;;5012659;28;20636;-70
2023/02/08 02:25:47;;;;;;;7.37;5.17;;;-1.70;99.90;;;;;;5012352;28;20458;-71
2023/02/08 02:28:40;;;;;;;11.57;5.33;;;-1.70;99.90;;;;;;5011422;28;20831;-70
2023/02/08 02:31:24;;;;;;;10.40;5.33;;;-1.60;99.90;;;;;;5011523;28;20948;-71
2023/02/08 02:34:08;;;;;;;11.57;6.47;;;-1.70;99.90;;;;;;5012031;28;20498;-71
2023/02/08 02:36:49;;;;;;;8.73;5.70;;;-1.70;99.90;;;;;;5012210;28;20399;-71
2023/02/08 02:39:52;;;;;;;9.63;5.57;;;-1.70;99.90;;;;;;5012266;28;20446;-71
2023/02/08 02:45:35;;;;;;;9.20;5.57;;;-1.60;99.90;;;;;;4998527;28;20398;-72
2023/02/08 02:48:03;;;;;;;10.77;5.73;;;-1.60;99.90;;;;;;5012272;28;20433;-70
2023/02/08 02:50:46;;;;;;;6.20;4.10;;;-1.50;99.90;;;;;;5010448;28;21117;-71
2023/02/08 02:53:41;;;;;;;6.73;4.03;;;-1.40;99.90;;;;;;5010935;28;20419;-71
2023/02/08 02:56:21;;;;;;;11.70;4.90;;;-1.50;99.90;;;;;;5011074;28;20413;-72
2023/02/08 02:58:48;;;;;;;10.70;5.60;;;-1.50;99.90;;;;;;5012119;28;20457;-71
2023/02/08 03:01:24;;;;;;;17.03;7.80;;;-1.60;99.90;;;;;;5011974;28;20864;-72
2023/02/08 03:03:51;;;;;;;13.50;5.80;;;-1.50;99.90;;;;;;5012213;28;20430;-72
2023/02/08 03:06:28;;;;;;;15.20;5.27;;;-1.50;99.90;;;;;;5011743;28;20411;-72
2023/02/08 03:09:00;;;;;;;6.63;5.03;;;-1.60;99.90;;;;;;5012122;28;20868;-71
2023/02/08 03:11:30;;;;;;;6.83;4.43;;;-1.60;99.90;;;;;;5009466;28;20447;-71
2023/02/08 03:14:10;;;;;;;10.43;5.80;;;-1.50;99.90;;;;;;5024662;28;20414;-71
2023/02/08 03:17:02;;;;;;;9.87;5.30;;;-1.50;99.90;;;;;;5011798;28;20446;-71
2023/02/08 03:19:53;;;;;;;11.23;6.20;;;-1.60;99.90;;;;;;5010796;28;20469;-71
2023/02/08 03:22:32;;;;;;;10.70;5.83;;;-1.70;99.90;;;;;;5011953;28;20427;-71
2023/02/08 03:25:04;;;;;;;9.60;6.00;;;-1.70;99.90;;;;;;5011713;28;20884;-71
2023/02/08 03:27:32;;;;;;;11.27;5.37;;;-1.70;99.90;;;;;;5011868;28;20407;-71
2023/02/08 03:30:29;;;;;;;8.17;5.00;;;-1.70;99.90;;;;;;5011780;28;20431;-71
2023/02/08 03:33:10;;;;;;;9.63;5.33;;;-1.80;99.90;;;;;;5010448;28;20419;-71
2023/02/08 03:35:56;;;;;;;11.77;5.70;;;-1.80;99.90;;;;;;5011640;28;20513;-71
2023/02/08 03:38:30;;;;;;;6.70;4.77;;;-1.70;99.90;;;;;;5011651;28;20527;-72
2023/02/08 03:40:59;;;;;;;6.03;5.20;;;-1.80;99.90;;;;;;4995168;28;20454;-71
2023/02/08 03:43:39;;;;;;;8.53;5.50;;;-1.80;99.90;;;;;;4990819;28;20414;-71
2023/02/08 03:46:25;;;;;;;8.77;5.03;;;-1.70;99.90;;;;;;5004546;28;20407;-71
2023/02/08 03:48:57;;;;;;;9.47;4.73;;;-1.70;99.90;;;;;;5010370;28;20461;-71
2023/02/08 03:51:23;;;;;;;10.20;5.70;;;-1.70;99.90;;;;;;5011711;28;20784;-71
2023/02/08 03:53:52;;;;;;;11.13;6.50;;;-1.60;99.90;;;;;;5011555;28;20992;-71
2023/02/08 03:56:33;;;;;;;6.80;5.07;;;-1.60;99.90;;;;;;5011299;28;20411;-71
2023/02/08 03:59:03;;;;;;;10.13;5.63;;;-1.60;99.90;;;;;;5011651;28;20451;-70
2023/02/08 04:01:35;;;;;;;12.57;5.60;;;-1.60;99.90;;;;;;5011427;28;20424;-70
2023/02/08 04:04:01;;;;;;;11.90;6.73;;;-1.60;99.90;;;;;;5011564;28;20449;-70
2023/02/08 04:06:27;;;;;;;10.47;6.50;;;-1.70;99.90;;;;;;5006241;28;20422;-72
2023/02/08 04:08:52;;;;;;;6.70;4.63;;;-1.70;99.90;;;;;;5013766;28;20283;-72
2023/02/08 04:11:18;;;;;;;11.63;5.87;;;-1.70;99.90;;;;;;5014993;28;21012;-71
2023/02/08 04:13:44;;;;;;;9.27;4.47;;;-1.70;99.90;;;;;;5015167;28;20176;-71
2023/02/08 04:16:11;;;;;;;9.50;5.77;;;-1.60;99.90;;;;;;5014588;28;20258;-70
2023/02/08 04:18:36;;;;;;;7.93;5.57;;;-1.70;99.90;;;;;;5017560;28;20635;-71
2023/02/08 04:21:02;;;;;;;25.20;7.50;;;-1.70;99.90;;;;;;5024103;28;20521;-71
2023/02/08 04:23:27;;;;;;;10.57;6.27;;;-1.70;99.90;;;;;;5014688;28;20183;-71
2023/02/08 04:25:53;;;;;;;9.57;5.63;;;-1.70;99.90;;;;;;5014522;28;20176;-72
2023/02/08 04:28:18;;;;;;;9.17;5.27;;;-1.70;99.90;;;;;;5014704;28;20176;-71
2023/02/08 04:30:44;;;;;;;8.77;5.40;;;-1.70;99.90;;;;;;5029842;28;20340;-71
2023/02/08 04:33:11;;;;;;;12.13;6.50;;;-1.80;99.90;;;;;;5014796;28;20180;-71
2023/02/08 04:35:37;;;;;;;10.70;5.50;;;-1.90;99.90;;;;;;4999482;28;20240;-72
2023/02/08 04:38:03;;;;;;;12.10;5.27;;;-2.00;99.90;;;;;;4994743;28;20403;-71
2023/02/08 04:40:29;;;;;;;10.70;5.37;;;-2.00;99.90;;;;;;4994827;28;20519;-72
2023/02/08 04:42:55;;;;;;;10.93;5.33;;;-2.00;99.90;;;;;;4994955;28;20169;-71
2023/02/08 04:45:21;;;;;;;11.00;6.33;;;-2.00;99.90;;;;;;4994459;28;20500;-71
2023/02/08 04:47:46;;;;;;;14.53;6.10;;;-2.10;99.90;;;;;;4994809;28;20227;-71
2023/02/08 04:50:12;;;;;;;9.07;5.10;;;-2.10;99.90;;;;;;4994540;28;20197;-71
2023/02/08 04:52:37;;;;;;;13.97;6.17;;;-2.10;99.90;;;;;;4994783;28;20792;-72
2023/02/08 04:55:03;;;;;;;9.70;6.60;;;-2.10;99.90;;;;;;4994188;28;20663;-71
2023/02/08 04:57:28;;;;;;;9.50;5.80;;;-2.20;99.90;;;;;;4994694;28;20169;-71
2023/02/08 04:59:54;;;;;;;16.57;7.00;;;-2.20;99.90;;;;;;4994511;28;20201;-71
2023/02/08 05:02:20;;;;;;;7.70;5.70;;;-2.20;99.90;;;;;;4993236;28;20165;-72
2023/02/08 05:04:45;;;;;;;11.53;5.87;;;-2.10;99.90;;;;;;4996071;28;20551;-71
2023/02/08 05:07:11;;;;;;;5.73;4.90;;;-2.10;99.90;;;;;;4994438;28;20412;-71
2023/02/08 05:09:36;;;;;;;7.63;5.40;;;-2.10;99.90;;;;;;4994246;28;20624;-72
2023/02/08 05:12:02;;;;;;;10.53;6.93;;;-2.10;99.90;;;;;;4994343;28;20169;-71
2023/02/08 05:14:27;;;;;;;12.60;5.53;;;-2.20;99.90;;;;;;4994002;28;20173;-71
2023/02/08 05:16:53;;;;;;;12.70;6.80;;;-2.10;99.90;;;;;;4994209;28;20176;-70
2023/02/08 05:19:18;;;;;;;9.00;5.70;;;-2.10;99.90;;;;;;4993282;28;20200;-71
2023/02/08 05:21:44;;;;;;;10.00;6.00;;;-2.20;99.90;;;;;;4994163;28;20173;-71
2023/02/08 05:24:11;;;;;;;17.40;6.90;;;-2.20;99.90;;;;;;4993811;28;20615;-70
2023/02/08 05:26:37;;;;;;;12.20;5.40;;;-2.30;99.90;;;;;;4994015;28;20534;-72
2023/02/08 05:29:02;;;;;;;8.80;6.70;;;-2.30;99.90;;;;;;4993951;28;20408;-72
2023/02/08 05:31:28;;;;;;;13.20;6.90;;;-2.30;99.90;;;;;;5023146;28;20924;-71
2023/02/08 05:33:53;;;;;;;10.40;5.73;;;-2.30;99.90;;;;;;5008568;28;20188;-71
2023/02/08 05:36:20;;;;;;;13.03;6.90;;;-2.30;99.90;;;;;;5007997;28;20176;-71
2023/02/08 05:38:45;;;;;;;7.60;5.80;;;-2.30;99.90;;;;;;5013444;28;20202;-70
2023/02/08 05:41:11;;;;;;;11.43;6.73;;;-2.30;99.90;;;;;;5011980;28;20509;-72
2023/02/08 05:43:36;;;;;;;10.97;6.30;;;-2.30;99.90;;;;;;5013329;28;20272;-72
2023/02/08 05:46:02;;;;;;;11.97;6.70;;;-2.30;99.90;;;;;;5000492;28;20168;-71
2023/02/08 05:48:30;;;;;;;10.40;6.13;;;-2.30;99.90;;;;;;4993568;28;20169;-70
2023/02/08 05:50:55;;;;;;;12.30;5.60;;;-2.30;99.90;;;;;;4993430;28;20185;-71
2023/02/08 05:53:21;;;;;;;10.00;6.40;;;-2.30;99.90;;;;;;4993646;28;20414;-72
2023/02/08 05:55:49;;;;;;;11.97;5.70;;;-2.30;99.90;;;;;;4993219;28;20196;-76
2023/02/08 05:58:16;;;;;;;12.83;5.63;;;-2.30;99.90;;;;;;4993443;28;20203;-71
2023/02/08 06:00:42;;;;;;;13.30;6.37;;;-2.30;99.90;;;;;;4993348;28;20432;-71
2023/02/08 06:03:07;;;;;;;9.70;5.67;;;-2.30;99.90;;;;;;5008830;28;20442;-71
2023/02/08 06:05:33;;;;;;;16.27;6.90;;;-2.20;99.90;;;;;;5011418;28;20403;-73
2023/02/08 06:07:59;;;;;;;10.53;6.77;;;-2.20;99.90;;;;;;5011764;28;20728;-71
2023/02/08 06:10:24;;;;;;;11.00;6.00;;;-2.30;99.90;;;;;;5012751;28;20490;-70
2023/02/08 06:12:50;;;;;;;9.23;5.20;;;-2.20;99.90;;;;;;5012685;28;20255;-71
2023/02/08 06:15:15;;;;;;;8.03;5.00;;;-2.30;99.90;;;;;;5012622;28;20179;-70
2023/02/08 06:17:41;;;;;;;9.20;5.20;;;-2.20;99.90;;;;;;5009590;28;20184;-71
2023/02/08 06:20:07;;;;;;;10.47;5.90;;;-2.30;99.90;;;;;;5012565;28;20682;-69
2023/02/08 06:22:36;;;;;;;14.27;6.87;;;-2.30;99.90;;;;;;5012567;28;20172;-70
2023/02/08 06:25:01;;;;;;;11.23;6.07;;;-2.30;99.90;;;;;;5012275;28;20430;-71
2023/02/08 06:27:27;;;;;;;13.37;6.47;;;-2.40;99.90;;;;;;5012543;28;20391;-70
2023/02/08 06:29:52;;;;;;;13.07;5.87;;;-2.40;99.90;;;;;;5012251;28;20200;-71
2023/02/08 06:32:18;;;;;;;10.40;5.47;;;-2.40;99.90;;;;;;5012598;28;20164;-71
2023/02/08 06:34:44;;;;;;;12.20;5.87;;;-2.40;99.90;;;;;;5012186;28;20183;-72
2023/02/08 06:37:09;;;;;;;10.20;6.70;;;-2.40;99.90;;;;;;5012449;28;20172;-70
2023/02/08 06:39:35;;;;;;;8.23;5.23;;;-2.30;99.90;;;;;;5012197;28;20223;-72
2023/02/08 06:42:00;;;;;;;9.73;6.43;;;-2.30;99.90;;;;;;5018321;28;20273;-72
2023/02/08 06:44:26;;;;;;;10.17;6.90;;;-2.20;99.90;;;;;;5018096;28;20164;-71
2023/02/08 06:46:52;;;;;;;10.67;6.53;;;-2.30;99.90;;;;;;4993263;28;20184;-70
2023/02/08 06:49:17;;;;;;;8.00;6.17;;;-2.40;99.90;;;;;;4992668;28;20173;-70
2023/02/08 06:51:43;;;;;;;12.40;6.90;;;-2.40;99.90;;;;;;4992502;28;20486;-72
2023/02/08 06:54:09;;;;;;;8.90;5.70;;;-2.40;99.90;;;;;;4992855;28;20179;-70
2023/02/08 06:56:34;;;;;;;13.47;7.00;;;-2.40;99.90;;;;;;4992114;28;20176;-70
2023/02/08 06:59:00;;;;;;;17.00;5.60;;;-2.30;99.90;;;;;;4992417;28;20287;-70
2023/02/08 07:01:25;;;;;;;13.13;6.37;;;-2.30;99.90;;;;;;4998175;28;20187;-72
2023/02/08 07:03:51;;;;;;;21.30;7.27;;;-2.30;99.90;;;;;;5012202;28;20223;-71
2023/02/08 07:06:18;;;;;;;13.23;6.07;;;-2.30;99.90;;;;;;5011751;28;20576;-71
2023/02/08 07:08:44;;;;;;;16.30;5.70;;;-2.40;99.90;;;;;;5011887;28;20184;-70
2023/02/08 07:11:16;;;;;;;9.63;5.70;;;-2.40;99.90;;;;;;5012175;28;20433;-70
2023/02/08 07:13:41;;;;;;;12.60;7.23;;;-2.40;99.90;;;;;;5012136;28;20465;-72
2023/02/08 07:16:08;;;;;;;12.47;6.37;;;-2.40;99.90;;;;;;5011668;28;20494;-71
2023/02/08 07:18:35;;;;;;;18.83;5.80;;;-2.40;99.90;;;;;;5011906;28;20199;-71
2023/02/08 07:21:01;;;;;;;10.60;6.07;;;-2.40;99.90;;;;;;5011922;28;20987;-71
2023/02/08 07:23:27;;;;;;;10.40;5.80;;;-2.30;99.90;;;;;;5011938;28;20489;-70
2023/02/08 07:26:00;;;;;;;19.07;6.70;;;-2.30;99.90;;;;;;5011706;28;20435;-71
2023/02/08 07:28:26;;;;;;;11.10;7.60;;;-2.20;99.90;;;;;;5011647;28;20273;-71
2023/02/08 07:30:52;;;;;;;20.43;6.07;;;-2.30;99.90;;;;;;4998860;28;20966;-71
2023/02/08 07:33:17;;;;;;;10.57;6.00;;;-2.20;99.90;;;;;;4992246;28;20537;-71
2023/02/08 07:35:43;;;;;;;10.17;6.00;;;-2.10;99.90;;;;;;4991780;28;20416;-72
2023/02/08 07:38:09;;;;;;;14.73;6.30;;;-2.00;99.90;;;;;;4992010;28;20177;-70
2023/02/08 07:40:35;;;;;;;12.03;5.97;;;-2.00;99.90;;;;;;4996089;28;20501;-71
2023/02/08 07:43:00;;;;;;;10.97;6.37;;;-1.90;99.90;;;;;;5014698;28;20255;-70
2023/02/08 07:45:26;;;;;;;13.57;5.80;;;-1.90;99.90;;;;;;5007731;28;20408;-71
2023/02/08 07:47:51;;;;;;;11.90;5.87;;;-1.90;99.90;;;;;;4995808;28;20189;-72
2023/02/08 07:50:18;;;;;;;10.50;5.70;;;-1.80;99.90;;;;;;5001254;28;20318;-71
2023/02/08 07:52:45;;;;;;;14.23;5.90;;;-1.70;99.90;;;;;;5026206;28;20585;-70
2023/02/08 07:55:15;;;;;;;10.93;6.23;;;-1.70;99.90;;;;;;5014961;28;20411;-71
2023/02/08 07:57:45;;;;;;;13.87;7.57;;;-1.60;99.90;;;;;;5015232;28;20497;-71
2023/02/08 08:00:11;;;;;;;12.50;5.57;;;-1.60;99.90;;;;;;5007794;28;20456;-71
2023/02/08 08:02:38;;;;;;;13.27;7.40;;;-1.50;99.90;;;;;;4995410;28;20531;-71
2023/02/08 08:05:04;;;;;;;11.03;6.23;;;-1.50;99.90;;;;;;4995191;28;20435;-71
2023/02/08 08:07:29;;;;;;;11.73;6.17;;;-1.40;99.90;;;;;;4995289;28;20521;-72
2023/02/08 08:09:55;;;;;;;11.23;6.37;;;-1.10;99.90;;;;;;4995324;28;20213;-72
2023/02/08 08:12:20;;;;;;;12.60;7.03;;;-0.70;99.90;;;;;;4995328;28;20673;-70
2023/02/08 08:14:46;;;;;;;16.03;6.83;;;0.40;99.90;;;;;;4995054;28;20175;-72
2023/02/08 08:17:11;;;;;;;12.47;7.60;;;1.70;99.90;;;;;;4995305;28;20243;-72
2023/02/08 08:19:37;;;;;;;10.67;7.37;;;3.00;99.90;;;;;;4995053;28;20502;-72
2023/02/08 08:22:03;;;;;;;9.17;6.70;;;4.20;99.90;;;;;;4995207;28;20196;-72
2023/02/08 08:24:30;;;;;;;8.23;6.03;;;5.50;99.90;;;;;;4995072;28;20177;-71
2023/02/08 08:26:56;;;;;;;10.20;6.93;;;6.90;99.90;;;;;;4995161;28;20168;-72
2023/02/08 08:29:22;;;;;;;9.13;6.20;;;8.60;99.90;;;;;;4995997;28;20964;-72
2023/02/08 08:31:47;;;;;;;11.23;7.47;;;9.90;94.10;;;;;;4993664;28;20197;-72
2023/02/08 08:34:13;;;;;;;10.80;7.60;;;11.30;82.50;;;;;;4994844;28;20170;-72
2023/02/08 08:36:38;;;;;;;7.20;6.43;;;12.60;69.10;;;;;;4994756;28;20176;-73
2023/02/08 08:39:04;;;;;;;12.67;6.90;;;13.60;63.90;;;;;;4994943;28;20207;-69
2023/02/08 08:41:30;;;;;;;8.50;6.43;;;14.60;57.60;;;;;;4994793;28;20197;-71
2023/02/08 08:43:55;;;;;;;12.57;7.40;;;15.70;54.40;;;;;;4994813;28;20248;-71
2023/02/08 08:46:21;;;;;;;7.90;6.27;;;16.80;50.00;;;;;;4994469;28;20462;-70
2023/02/08 08:48:46;;;;;;;9.47;7.50;;;17.90;47.80;;;;;;4994857;28;20571;-69
2023/02/08 08:51:13;;;;;;;9.37;6.63;;;18.80;45.00;;;;;;4994555;28;20189;-69
2023/02/08 08:53:38;;;;;;;8.37;6.43;;;19.30;41.90;;;;;;4994714;28;20173;-70
2023/02/08 08:56:05;;;;;;;7.80;6.87;;;19.70;41.10;;;;;;4994369;28;20406;-69
2023/02/08 08:58:31;;;;;;;15.23;7.07;;;20.50;40.60;;;;;;4994500;28;20262;-71
2023/02/08 09:00:57;;;;;;;10.07;7.43;;;20.80;37.90;;;;;;5006096;28;20435;-70
2023/02/08 09:03:23;;;;;;;8.43;6.40;;;21.20;36.00;;;;;;5021417;28;20847;-71
2023/02/08 09:05:49;;;;;;;9.10;6.93;;;21.80;36.60;;;;;;5013787;28;20506;-69
2023/02/08 09:08:14;;;;;;;7.83;5.73;;;22.60;36.10;;;;;;5012691;28;20700;-72
2023/02/08 09:10:40;;;;;;;7.13;6.10;;;22.80;34.80;;;;;;5013818;28;20339;-71
2023/02/08 09:13:05;;;;;;;8.40;6.50;;;23.50;34.80;;;;;;5013822;28;20176;-72
2023/02/08 09:15:31;;;;;;;11.30;6.67;;;23.90;33.70;;;;;;5013589;28;20172;-72
2023/02/08 09:17:56;;;;;;;14.13;6.87;;;24.30;32.70;;;;;;5013744;28;20168;-72
2023/02/08 09:20:22;;;;;;;11.23;6.47;;;24.60;32.70;;;;;;5013570;28;20693;-72
2023/02/08 09:22:48;;;;;;;9.80;7.10;;;24.80;31.50;;;;;;5013683;28;20194;-71
2023/02/08 09:25:14;;;;;;;7.67;6.23;;;25.00;31.80;;;;;;5013415;28;20399;-69
2023/02/08 09:27:39;;;;;;;8.63;7.00;;;25.00;31.20;;;;;;5028824;28;20175;-71
2023/02/08 09:30:05;;;;;;;9.73;6.57;;;24.60;30.20;;;;;;5000979;28;20254;-72
2023/02/08 09:32:33;;;;;;;7.90;6.67;;;24.60;30.10;;;;;;4994122;28;20173;-72
2023/02/08 09:34:59;;;;;;;7.03;6.00;;;24.90;30.20;;;;;;4993521;28;20404;-72
2023/02/08 09:37:24;;;;;;;9.50;6.07;;;25.20;29.60;;;;;;4993968;28;20749;-70
2023/02/08 09:39:50;;;;;;;6.53;5.93;;;25.10;29.10;;;;;;4993677;28;20514;-70
2023/02/08 09:42:27;;;;;;;8.47;6.47;;;24.40;28.80;;;;;;4993732;28;20212;-70
2023/02/08 09:45:36;;;;;;;6.43;5.70;;;24.50;29.30;;;;;;4992097;28;20246;-72
2023/02/08 09:48:18;;;;;;;6.70;5.50;;;24.90;29.90;;;;;;4993439;28;20820;-69
2023/02/08 09:50:58;;;;;;;9.60;6.00;;;25.80;29.90;;;;;;4993544;28;20435;-70
2023/02/08 09:53:43;;;;;;;10.67;6.40;;;25.90;28.70;;;;;;4993585;28;20919;-71
2023/02/08 09:56:15;;;;;;;9.13;7.07;;;25.90;28.10;;;;;;4993172;28;20415;-71
2023/02/08 09:58:48;;;;;;;11.83;6.70;;;25.50;28.20;;;;;;4993373;28;20546;-72
2023/02/08 10:01:29;;;;;;;7.67;6.43;;;26.30;28.90;;;;;;5008220;28;20797;-72
2023/02/08 10:04:00;;;;;;;6.20;5.60;;;27.00;28.30;;;;;;5012800;28;20442;-71
2023/02/08 10:06:26;;;;;;;7.60;6.50;;;27.50;27.50;;;;;;5012463;28;20414;-71
2023/02/08 10:08:52;;;;;;;6.20;5.67;;;28.10;27.20;;;;;;5023603;28;20517;-71
2023/02/08 10:11:46;;;;;;;8.13;4.70;;;28.40;26.80;;;;;;5012657;28;20184;-71
2023/02/08 10:14:36;;;;;;;6.47;5.87;;;28.30;26.00;;;;;;5012695;28;20395;-68
2023/02/08 10:17:27;;;;;;;8.07;6.83;;;27.40;25.40;;;;;;5027982;28;20773;-71
2023/02/08 10:20:15;;;;;;;6.77;6.17;;;26.90;26.20;;;;;;5012602;28;20529;-72
2023/02/08 10:22:57;;;;;;;6.07;5.47;;;26.70;26.40;;;;;;5012264;28;20455;-72
2023/02/08 10:25:38;;;;;;;6.73;6.07;;;26.70;26.50;;;;;;5012308;28;20395;-72
2023/02/08 10:28:33;;;;;;;7.50;5.67;;;27.20;26.80;;;;;;5012546;28;20573;-70
2023/02/08 10:31:04;;;;;;;8.80;6.70;;;27.30;26.30;;;;;;4992948;28;20423;-70
2023/02/08 10:33:35;;;;;;;7.90;7.00;;;27.70;26.40;;;;;;4992885;28;20411;-72
2023/02/08 10:36:02;;;;;;;7.77;6.37;;;28.40;26.30;;;;;;4992639;28;20404;-73
2023/02/08 10:38:31;;;;;;;13.03;6.20;;;28.00;25.40;;;;;;4992720;28;20418;-72
2023/02/08 10:40:59;;;;;;;7.43;5.97;;;28.50;25.80;;;;;;4992765;28;20420;-72
2023/02/08 10:43:34;;;;;;;7.43;6.57;;;28.10;25.20;;;;;;4992817;28;20769;-70
2023/02/08 10:46:26;;;;;;;6.30;5.70;;;28.20;25.50;;;;;;5004448;28;20457;-71
2023/02/08 10:49:00;;;;;;;8.90;6.43;;;28.90;25.60;;;;;;4995672;28;20478;-70
2023/02/08 10:51:26;;;;;;;6.40;5.73;;;29.40;25.10;;;;;;5011968;28;20423;-70
2023/02/08 10:53:53;;;;;;;6.47;5.80;;;29.30;24.70;;;;;;5012296;28;20414;-71
2023/02/08 10:56:36;;;;;;;6.00;5.40;;;29.40;24.70;;;;;;5010619;28;20880;-70
2023/02/08 10:59:44;;;;;;;6.87;6.17;;;29.70;24.80;;;;;;5012109;28;20505;-70
2023/02/08 11:02:29;;;;;;;6.90;6.20;;;29.80;24.90;;;;;;5009774;28;20468;-71
2023/02/08 11:05:01;;;;;;;8.67;7.30;;;29.60;24.20;;;;;;5011882;28;20411;-70
2023/02/08 11:07:27;;;;;;;7.30;6.57;;;29.70;23.70;;;;;;5012393;28;20515;-72
2023/02/08 11:09:53;;;;;;;6.90;6.10;;;29.90;24.20;;;;;;5011981;28;20906;-70
2023/02/08 11:12:20;;;;;;;9.50;6.50;;;29.50;23.70;;;;;;5012059;28;20172;-70
2023/02/08 11:14:53;;;;;;;5.97;5.20;;;29.50;23.90;;;;;;5011890;28;20226;-71
2023/02/08 11:17:28;;;;;;;8.50;6.27;;;30.00;23.90;;;;;;5013935;28;20407;-71
2023/02/08 11:19:54;;;;;;;7.53;6.10;;;31.00;24.10;;;;;;5025291;28;20457;-71
2023/02/08 11:22:22;;;;;;;8.53;6.40;;;31.80;24.10;;;;;;5018606;28;20779;-72
2023/02/08 11:25:00;;;;;;;7.47;4.93;;;32.70;24.10;;;;;;5015596;28;20168;-72
2023/02/08 11:27:31;;;;;;;7.73;7.03;;;33.50;23.60;;;;;;5015853;28;20764;-72
2023/02/08 11:30:19;;;;;;;11.40;6.40;;;33.80;22.90;;;;;;4996185;28;20463;-72
2023/02/08 11:32:47;;;;;;;6.80;5.50;;;34.00;22.30;;;;;;4996308;28;20411;-72
2023/02/08 11:35:28;;;;;;;7.23;6.40;;;34.00;22.60;;;;;;4996064;28;20763;-72
2023/02/08 11:37:56;;;;;;;6.80;6.10;;;34.30;22.20;;;;;;4996068;28;20396;-72
2023/02/08 11:40:31;;;;;;;7.23;5.40;;;34.20;21.60;;;;;;4996057;28;20455;-72
2023/02/08 11:42:57;;;;;;;6.30;5.40;;;34.40;21.50;;;;;;4996120;28;20412;-72
2023/02/08 11:45:32;;;;;;;6.20;5.70;;;33.70;21.30;;;;;;4995445;28;20415;-71
2023/02/08 11:48:00;;;;;;;6.87;6.20;;;33.50;21.30;;;;;;4995922;28;20454;-72
2023/02/08 11:50:37;;;;;;;5.80;5.33;;;33.20;21.20;;;;;;4995330;28;20455;-71
2023/02/08 11:53:16;;;;;;;6.70;6.00;;;32.60;21.20;;;;;;4994453;28;20412;-71
2023/02/08 11:55:41;;;;;;;6.57;5.97;;;32.10;21.50;;;;;;5010435;28;20415;-70
2023/02/08 11:58:13;;;;;;;7.63;6.67;;;32.30;21.90;;;;;;4999238;28;20419;-71
2023/02/08 12:00:40;;;;;;;7.30;5.80;;;32.90;22.30;;;;;;4996722;28;20280;-71
2023/02/08 12:03:20;;;;;;;6.77;6.10;;;32.60;21.70;;;;;;4995670;28;20917;-71
2023/02/08 12:05:58;;;;;;;9.93;5.97;;;33.60;22.30;;;;;;4995382;28;20503;-70
2023/02/08 12:08:43;;;;;;;5.97;5.43;;;34.70;22.30;;;;;;4995317;28;20451;-71
2023/02/08 12:11:22;;;;;;;6.10;5.47;;;36.20;22.80;;;;;;4994254;28;20903;-70
2023/02/08 12:14:12;;;;;;;6.50;6.00;;;36.50;21.20;;;;;;4994440;28;20404;-71
2023/02/08 12:16:47;;;;;;;6.90;6.20;;;36.20;20.70;;;;;;4994089;28;20767;-70
2023/02/08 12:19:24;;;;;;;6.77;6.00;;;36.30;20.80;;;;;;5011058;28;20407;-72
2023/02/08 12:21:58;;;;;;;6.53;5.60;;;36.40;20.60;;;;;;5013758;28;20766;-71
2023/02/08 12:24:42;;;;;;;5.97;5.37;;;36.10;20.60;;;;;;5012255;28;20411;-70
2023/02/08 12:27:32;;;;;;;7.73;6.13;;;35.80;20.80;;;;;;5013337;28;20403;-72
2023/02/08 12:30:15;;;;;;;5.60;5.10;;;35.30;20.30;;;;;;5001043;28;20513;-72
2023/02/08 12:33:01;;;;;;;5.87;5.37;;;36.00;21.10;;;;;;5024575;28;20411;-71
2023/02/08 12:35:39;;;;;;;5.63;5.13;;;35.50;20.10;;;;;;5013419;28;20912;-71
2023/02/08 12:41:31;;;;;;;5.77;5.20;;;34.60;20.50;;;;;;4998404;28;20477;-73
2023/02/08 12:44:03;;;;;;;6.73;6.03;;;33.80;19.80;;;;;;5013340;28;20415;-73
2023/02/08 12:46:56;;;;;;;6.20;5.60;;;34.20;20.70;;;;;;4997310;28;20771;-73
2023/02/08 12:49:48;;;;;;;5.60;5.07;;;34.80;20.90;;;;;;4993738;28;20447;-72
2023/02/08 12:52:37;;;;;;;5.93;5.33;;;34.60;20.10;;;;;;4993721;28;20399;-70
2023/02/08 12:55:12;;;;;;;5.20;4.50;;;34.00;19.60;;;;;;4993498;28;20448;-72
2023/02/08 12:57:38;;;;;;;5.53;4.80;;;33.20;19.50;;;;;;4993662;28;20760;-73
2023/02/08 13:00:06;;;;;;;4.93;4.13;;;32.90;19.90;;;;;;4993610;28;20891;-72
2023/02/08 13:02:43;;;;;;;6.17;4.57;;;31.80;19.80;;;;;;4993614;28;20412;-70
2023/02/08 13:05:16;;;;;;;8.43;4.60;;;31.20;20.10;;;;;;4991969;28;20423;-71
2023/02/08 13:07:44;;;;;;;8.33;4.97;;;31.30;20.60;;;;;;4992228;28;20416;-73